Stk-1020 — UCYT — position and weather

sailwx.info

Track history (hours):
 
Tides and Currents Weather Stations Pressure Air Temp Water Temp Dewpoint Dewpoint Depression Visibility Wind Speed Wind Dir Waves Ship Positions

Stk-1020

Last reported at 2017-Aug-08 01:01 UTC. Time now 2017-Aug-19 14:54 UTC.
Position N 59°50' E 030°33'.
Warning: this ship's position is 11 days out of date.

Length 82 m; draft 2.5 m.

Type: Cargo ship. MMSI: 273362200.

Date/timePositionNaut miles runAvg speedWind from/ knotsBaromVisibWave heightAir tempDewpointWater temp
2017-Aug-08 01:01N 59°50' E 030°33'0 4.9
2017-Aug-08 00:56N 59°50' E 030°32'2 5.0
2017-Aug-08 00:28N 59°52' E 030°29'2 4.7
2017-Aug-08 00:00N 59°54' E 030°26'2 4.9
2017-Aug-07 23:30N 59°56' E 030°24'2 3.7
2017-Aug-07 23:00N 59°57' E 030°21'2 4.1
2017-Aug-07 22:29N 59°56' E 030°17'0 0.2
2017-Aug-07 21:59N 59°56' E 030°17'0 0.0
2017-Aug-07 21:30N 59°56' E 030°17'0 0.0
2017-Aug-07 21:00N 59°56' E 030°17'0 0.0
2017-Aug-07 20:30N 59°56' E 030°17'0 0.0
2017-Aug-07 19:58N 59°56' E 030°17'0 0.0
2017-Aug-07 19:28N 59°56' E 030°17'0 0.0
2017-Aug-07 18:58N 59°56' E 030°17'0 0.0
2017-Aug-07 18:29N 59°56' E 030°17'0 0.0
2017-Aug-07 17:59N 59°56' E 030°17'0 0.0
2017-Aug-07 17:29N 59°56' E 030°17'0 0.0
2017-Aug-07 17:00N 59°56' E 030°17'0 0.0
2017-Aug-07 16:30N 59°56' E 030°17'0 0.0
2017-Aug-07 16:00N 59°56' E 030°17'0 0.0
2017-Aug-07 15:28N 59°56' E 030°17'0 0.0
2017-Aug-07 14:58N 59°56' E 030°17'0 0.0
2017-Aug-07 14:28N 59°56' E 030°17'2 4.6
2017-Aug-07 14:01N 59°55' E 030°14'1 1.5
2017-Aug-07 13:28N 59°54' E 030°13'0 0.0
2017-Aug-07 12:59N 59°54' E 030°13'0 0.0
2017-Aug-07 12:29N 59°54' E 030°13'0 0.0
2017-Aug-07 11:59N 59°54' E 030°13'0 0.0
2017-Aug-07 11:30N 59°54' E 030°13'0 0.0
2017-Aug-07 11:00N 59°54' E 030°13'0 0.0
2017-Aug-07 10:30N 59°54' E 030°13'0 0.0
2017-Aug-07 09:58N 59°54' E 030°13'0 0.0
2017-Aug-07 09:28N 59°54' E 030°13'0 0.0
2017-Aug-07 08:58N 59°54' E 030°13'0 0.0
2017-Aug-07 08:29N 59°54' E 030°13'0 0.0
2017-Aug-07 08:00N 59°54' E 030°13'0 0.0
2017-Aug-07 07:30N 59°54' E 030°13'0 0.0
2017-Aug-07 07:00N 59°54' E 030°13'0 0.0
2017-Aug-07 06:30N 59°54' E 030°13'2 3.4
2017-Aug-07 06:00N 59°53' E 030°10'4 7.4
2017-Aug-07 05:30N 59°55' E 030°03'4 8.1
2017-Aug-07 05:00N 59°56' E 029°56'4 8.3
2017-Aug-07 04:30N 59°58' E 029°48'4 7.2
2017-Aug-07 04:00N 59°60' E 029°41'4 7.9
2017-Aug-07 03:30N 60°01' E 029°34'5 1.6
2017-Aug-07 00:18N 60°01' E 029°24'0 0.0
2017-Aug-07 00:00N 60°01' E 029°24'0 0.0
2017-Aug-06 23:23N 60°01' E 029°24'0 0.1
2017-Aug-06 22:30N 60°01' E 029°24'8 2.1
2017-Aug-06 18:35N 60°01' E 029°07'1 7.7
2017-Aug-06 18:29N 60°02' E 029°06'4 8.0
2017-Aug-06 17:59N 60°02' E 028°58'4 7.9
2017-Aug-06 17:30N 60°02' E 028°50'4 7.9
2017-Aug-06 17:00N 60°02' E 028°42'4 7.8
2017-Aug-06 16:30N 60°02' E 028°35'4 7.6
2017-Aug-06 16:00N 60°03' E 028°27'4 7.9
2017-Aug-06 15:30N 60°05' E 028°20'4 7.6
2017-Aug-06 15:00N 60°07' E 028°15'4 7.7
2017-Aug-06 14:30N 60°08' E 028°07'8 7.7
2017-Aug-06 13:30N 60°10' E 027°52'4 7.1
2017-Aug-06 13:00N 60°10' E 027°45'4 7.7
2017-Aug-06 12:30N 60°08' E 027°38'4 7.8
2017-Aug-06 12:00N 60°06' E 027°32'4 8.0
2017-Aug-06 11:30N 60°04' E 027°25'4 8.1
2017-Aug-06 11:00N 60°02' E 027°18'4 7.9
2017-Aug-06 10:30N 59°60' E 027°11'4 7.9
2017-Aug-06 10:00N 59°58' E 027°04'4 7.6
2017-Aug-06 09:30N 59°58' E 026°57'4 7.9
2017-Aug-06 09:00N 59°59' E 026°49'4 7.8
2017-Aug-06 08:30N 59°59' E 026°41'4 8.0
2017-Aug-06 08:00N 59°58' E 026°34'4 8.3
2017-Aug-06 07:30N 59°57' E 026°26'4 8.2
2017-Aug-06 07:00N 59°56' E 026°18'4 8.3
2017-Aug-06 06:30N 59°55' E 026°10'4 8.3
2017-Aug-06 06:00N 59°54' E 026°02'4 8.1
2017-Aug-06 05:30N 59°52' E 025°54'4 8.1
2017-Aug-06 05:00N 59°51' E 025°47'4 8.2
2017-Aug-06 04:30N 59°50' E 025°39'4 8.1
2017-Aug-06 04:00N 59°50' E 025°31'4 7.7
2017-Aug-06 03:30N 59°49' E 025°23'4 7.4
2017-Aug-06 03:00N 59°48' E 025°16'4 7.7
2017-Aug-06 02:30N 59°47' E 025°08'4 8.0
2017-Aug-06 02:00N 59°47' E 025°01'4 8.0
2017-Aug-06 01:30N 59°46' E 024°53'4 7.9
2017-Aug-06 01:00N 59°45' E 024°45'4 8.1
2017-Aug-06 00:30N 59°43' E 024°38'4 8.3
2017-Aug-06 00:00N 59°41' E 024°31'4 8.4
2017-Aug-05 23:30N 59°39' E 024°23'4 8.3
2017-Aug-05 23:00N 59°37' E 024°16'4 8.3
2017-Aug-05 22:30N 59°36' E 024°09'4 8.2
2017-Aug-05 22:00N 59°34' E 024°01'4 8.1
2017-Aug-05 21:30N 59°32' E 023°54'4 7.9
2017-Aug-05 21:00N 59°30' E 023°47'4 7.9
2017-Aug-05 20:30N 59°28' E 023°40'4 7.9
2017-Aug-05 20:00N 59°26' E 023°33'4 8.1
2017-Aug-05 19:30N 59°25' E 023°26'4 8.3
2017-Aug-05 19:00N 59°23' E 023°19'4 8.4
2017-Aug-05 18:30N 59°21' E 023°12'4 8.2
2017-Aug-05 18:00N 59°19' E 023°05'4 8.3
2017-Aug-05 17:30N 59°17' E 022°57'4 8.6
2017-Aug-05 17:00N 59°15' E 022°50'4 8.2
2017-Aug-05 16:30N 59°13' E 022°43'4 7.4
2017-Aug-05 16:00N 59°12' E 022°36'4 7.3
2017-Aug-05 15:30N 59°10' E 022°30'4 8.5
2017-Aug-05 15:00N 59°08' E 022°22'4 8.7
2017-Aug-05 14:30N 59°06' E 022°15'4 8.6
2017-Aug-05 13:59N 59°04' E 022°07'4 8.5
2017-Aug-05 13:30N 59°02' E 021°60'4 8.5
2017-Aug-05 13:00N 58°59' E 021°54'4 8.4
2017-Aug-05 12:30N 58°56' E 021°48'236 6.9
2017-Aug-04 02:33N 55°10' E 019°48'2 7.6
2017-Aug-04 02:16N 55°08' E 019°46'2 7.6
2017-Aug-04 01:56N 55°06' E 019°43'3 7.8
2017-Aug-04 01:30N 55°04' E 019°39'3 6.7
2017-Aug-04 01:00N 55°00' E 019°37'3 6.7
2017-Aug-04 00:30N 54°57' E 019°37'4 7.1
2017-Aug-04 00:00N 54°54' E 019°37'4 7.2
2017-Aug-03 23:30N 54°50' E 019°37'4 7.5
2017-Aug-03 23:00N 54°46' E 019°37'3 6.2
2017-Aug-03 22:30N 54°44' E 019°40'3 7.0
2017-Aug-03 22:00N 54°42' E 019°45'4 7.7
2017-Aug-03 21:30N 54°40' E 019°51'4 7.0
2017-Aug-03 20:59N 54°38' E 019°57'4 8.2
2017-Aug-03 20:27N 54°39' E 020°04'4 7.8
2017-Aug-03 19:59N 54°41' E 020°09'4 7.8
2017-Aug-03 19:30N 54°41' E 020°16'4 7.9
2017-Aug-03 19:00N 54°41' E 020°23'3 0.2
2017-Aug-03 05:40N 54°42' E 020°28'0 0.0
2017-Aug-03 03:53N 54°42' E 020°28'0 0.0
2017-Aug-03 03:29N 54°42' E 020°28'0 0.0
2017-Aug-03 02:48N 54°42' E 020°28'0 0.0
2017-Aug-03 01:31N 54°42' E 020°28'  
2017-Jul-29 13:10N 54°38' E 019°60'2 8.0
2017-Jul-29 12:58N 54°38' E 019°57'3 7.0
2017-Jul-29 12:30N 54°39' E 019°52'1 2.7
2017-Jul-29 12:00N 54°39' E 019°50'0 0.1
2017-Jul-29 11:30N 54°39' E 019°49'0 0.0
2017-Jul-29 10:57N 54°39' E 019°49'0 0.0
2017-Jul-29 10:30N 54°39' E 019°49'0 0.0
2017-Jul-29 10:00N 54°39' E 019°49'0 0.0
2017-Jul-29 09:30N 54°39' E 019°49'3 5.6
2017-Jul-29 09:00N 54°41' E 019°46'4 8.1
2017-Jul-29 08:30N 54°43' E 019°40'3 6.9
2017-Jul-29 08:00N 54°46' E 019°37'4 7.8
2017-Jul-29 07:30N 54°50' E 019°37'13 7.8
2017-Jul-29 05:52N 55°03' E 019°37'5 7.7
2017-Jul-29 05:17N 55°07' E 019°40'3 7.9
2017-Jul-29 04:51N 55°11' E 019°41'3 8.1
2017-Jul-29 04:27N 55°13' E 019°43'4 8.2
2017-Jul-29 03:57N 55°17' E 019°45'  
Track history (hours):
 
Tides and Currents Weather Stations Pressure Air Temp Water Temp Dewpoint Dewpoint Depression Visibility Wind Speed Wind Dir Waves Ship Positions

Stk-1020

Last reported at 2017-Aug-08 01:01 UTC. Time now 2017-Aug-19 14:54 UTC.
Position N 59°50' E 030°33'.
Warning: this ship's position is 11 days out of date.

Length 82 m; draft 2.5 m.

Type: Cargo ship. MMSI: 273362200.

Date/timePositionNaut miles runAvg speedWind from/ knotsBaromVisibWave heightAir tempDewpointWater temp
2017-Aug-08 01:01N 59°50' E 030°33'0 4.9
2017-Aug-08 00:56N 59°50' E 030°32'2 5.0
2017-Aug-08 00:28N 59°52' E 030°29'2 4.7
2017-Aug-08 00:00N 59°54' E 030°26'2 4.9
2017-Aug-07 23:30N 59°56' E 030°24'2 3.7
2017-Aug-07 23:00N 59°57' E 030°21'2 4.1
2017-Aug-07 22:29N 59°56' E 030°17'0 0.2
2017-Aug-07 21:59N 59°56' E 030°17'0 0.0
2017-Aug-07 21:30N 59°56' E 030°17'0 0.0
2017-Aug-07 21:00N 59°56' E 030°17'0 0.0
2017-Aug-07 20:30N 59°56' E 030°17'0 0.0
2017-Aug-07 19:58N 59°56' E 030°17'0 0.0
2017-Aug-07 19:28N 59°56' E 030°17'0 0.0
2017-Aug-07 18:58N 59°56' E 030°17'0 0.0
2017-Aug-07 18:29N 59°56' E 030°17'0 0.0
2017-Aug-07 17:59N 59°56' E 030°17'0 0.0
2017-Aug-07 17:29N 59°56' E 030°17'0 0.0
2017-Aug-07 17:00N 59°56' E 030°17'0 0.0
2017-Aug-07 16:30N 59°56' E 030°17'0 0.0
2017-Aug-07 16:00N 59°56' E 030°17'0 0.0
2017-Aug-07 15:28N 59°56' E 030°17'0 0.0
2017-Aug-07 14:58N 59°56' E 030°17'0 0.0
2017-Aug-07 14:28N 59°56' E 030°17'2 4.6
2017-Aug-07 14:01N 59°55' E 030°14'1 1.5
2017-Aug-07 13:28N 59°54' E 030°13'0 0.0
2017-Aug-07 12:59N 59°54' E 030°13'0 0.0
2017-Aug-07 12:29N 59°54' E 030°13'0 0.0
2017-Aug-07 11:59N 59°54' E 030°13'0 0.0
2017-Aug-07 11:30N 59°54' E 030°13'0 0.0
2017-Aug-07 11:00N 59°54' E 030°13'0 0.0
2017-Aug-07 10:30N 59°54' E 030°13'0 0.0
2017-Aug-07 09:58N 59°54' E 030°13'0 0.0
2017-Aug-07 09:28N 59°54' E 030°13'0 0.0
2017-Aug-07 08:58N 59°54' E 030°13'0 0.0
2017-Aug-07 08:29N 59°54' E 030°13'0 0.0
2017-Aug-07 08:00N 59°54' E 030°13'0 0.0
2017-Aug-07 07:30N 59°54' E 030°13'0 0.0
2017-Aug-07 07:00N 59°54' E 030°13'0 0.0
2017-Aug-07 06:30N 59°54' E 030°13'2 3.4
2017-Aug-07 06:00N 59°53' E 030°10'4 7.4
2017-Aug-07 05:30N 59°55' E 030°03'4 8.1
2017-Aug-07 05:00N 59°56' E 029°56'4 8.3
2017-Aug-07 04:30N 59°58' E 029°48'4 7.2
2017-Aug-07 04:00N 59°60' E 029°41'4 7.9
2017-Aug-07 03:30N 60°01' E 029°34'5 1.6
2017-Aug-07 00:18N 60°01' E 029°24'0 0.0
2017-Aug-07 00:00N 60°01' E 029°24'0 0.0
2017-Aug-06 23:23N 60°01' E 029°24'0 0.1
2017-Aug-06 22:30N 60°01' E 029°24'8 2.1
2017-Aug-06 18:35N 60°01' E 029°07'1 7.7
2017-Aug-06 18:29N 60°02' E 029°06'4 8.0
2017-Aug-06 17:59N 60°02' E 028°58'4 7.9
2017-Aug-06 17:30N 60°02' E 028°50'4 7.9
2017-Aug-06 17:00N 60°02' E 028°42'4 7.8
2017-Aug-06 16:30N 60°02' E 028°35'4 7.6
2017-Aug-06 16:00N 60°03' E 028°27'4 7.9
2017-Aug-06 15:30N 60°05' E 028°20'4 7.6
2017-Aug-06 15:00N 60°07' E 028°15'4 7.7
2017-Aug-06 14:30N 60°08' E 028°07'8 7.7
2017-Aug-06 13:30N 60°10' E 027°52'4 7.1
2017-Aug-06 13:00N 60°10' E 027°45'4 7.7
2017-Aug-06 12:30N 60°08' E 027°38'4 7.8
2017-Aug-06 12:00N 60°06' E 027°32'4 8.0
2017-Aug-06 11:30N 60°04' E 027°25'4 8.1
2017-Aug-06 11:00N 60°02' E 027°18'4 7.9
2017-Aug-06 10:30N 59°60' E 027°11'4 7.9
2017-Aug-06 10:00N 59°58' E 027°04'4 7.6
2017-Aug-06 09:30N 59°58' E 026°57'4 7.9
2017-Aug-06 09:00N 59°59' E 026°49'4 7.8
2017-Aug-06 08:30N 59°59' E 026°41'4 8.0
2017-Aug-06 08:00N 59°58' E 026°34'4 8.3
2017-Aug-06 07:30N 59°57' E 026°26'4 8.2
2017-Aug-06 07:00N 59°56' E 026°18'4 8.3
2017-Aug-06 06:30N 59°55' E 026°10'4 8.3
2017-Aug-06 06:00N 59°54' E 026°02'4 8.1
2017-Aug-06 05:30N 59°52' E 025°54'4 8.1
2017-Aug-06 05:00N 59°51' E 025°47'4 8.2
2017-Aug-06 04:30N 59°50' E 025°39'4 8.1
2017-Aug-06 04:00N 59°50' E 025°31'4 7.7
2017-Aug-06 03:30N 59°49' E 025°23'4 7.4
2017-Aug-06 03:00N 59°48' E 025°16'4 7.7
2017-Aug-06 02:30N 59°47' E 025°08'4 8.0
2017-Aug-06 02:00N 59°47' E 025°01'4 8.0
2017-Aug-06 01:30N 59°46' E 024°53'4 7.9
2017-Aug-06 01:00N 59°45' E 024°45'4 8.1
2017-Aug-06 00:30N 59°43' E 024°38'4 8.3
2017-Aug-06 00:00N 59°41' E 024°31'4 8.4
2017-Aug-05 23:30N 59°39' E 024°23'4 8.3
2017-Aug-05 23:00N 59°37' E 024°16'4 8.3
2017-Aug-05 22:30N 59°36' E 024°09'4 8.2
2017-Aug-05 22:00N 59°34' E 024°01'4 8.1
2017-Aug-05 21:30N 59°32' E 023°54'4 7.9
2017-Aug-05 21:00N 59°30' E 023°47'4 7.9
2017-Aug-05 20:30N 59°28' E 023°40'4 7.9
2017-Aug-05 20:00N 59°26' E 023°33'4 8.1
2017-Aug-05 19:30N 59°25' E 023°26'4 8.3
2017-Aug-05 19:00N 59°23' E 023°19'4 8.4
2017-Aug-05 18:30N 59°21' E 023°12'4 8.2
2017-Aug-05 18:00N 59°19' E 023°05'4 8.3
2017-Aug-05 17:30N 59°17' E 022°57'4 8.6
2017-Aug-05 17:00N 59°15' E 022°50'4 8.2
2017-Aug-05 16:30N 59°13' E 022°43'4 7.4
2017-Aug-05 16:00N 59°12' E 022°36'4 7.3
2017-Aug-05 15:30N 59°10' E 022°30'4 8.5
2017-Aug-05 15:00N 59°08' E 022°22'4 8.7
2017-Aug-05 14:30N 59°06' E 022°15'4 8.6
2017-Aug-05 13:59N 59°04' E 022°07'4 8.5
2017-Aug-05 13:30N 59°02' E 021°60'4 8.5
2017-Aug-05 13:00N 58°59' E 021°54'4 8.4
2017-Aug-05 12:30N 58°56' E 021°48'236 6.9
2017-Aug-04 02:33N 55°10' E 019°48'2 7.6
2017-Aug-04 02:16N 55°08' E 019°46'2 7.6
2017-Aug-04 01:56N 55°06' E 019°43'3 7.8
2017-Aug-04 01:30N 55°04' E 019°39'3 6.7
2017-Aug-04 01:00N 55°00' E 019°37'3 6.7
2017-Aug-04 00:30N 54°57' E 019°37'4 7.1
2017-Aug-04 00:00N 54°54' E 019°37'4 7.2
2017-Aug-03 23:30N 54°50' E 019°37'4 7.5
2017-Aug-03 23:00N 54°46' E 019°37'3 6.2
2017-Aug-03 22:30N 54°44' E 019°40'3 7.0
2017-Aug-03 22:00N 54°42' E 019°45'4 7.7
2017-Aug-03 21:30N 54°40' E 019°51'4 7.0
2017-Aug-03 20:59N 54°38' E 019°57'4 8.2
2017-Aug-03 20:27N 54°39' E 020°04'4 7.8
2017-Aug-03 19:59N 54°41' E 020°09'4 7.8
2017-Aug-03 19:30N 54°41' E 020°16'4 7.9
2017-Aug-03 19:00N 54°41' E 020°23'3 0.2
2017-Aug-03 05:40N 54°42' E 020°28'0 0.0
2017-Aug-03 03:53N 54°42' E 020°28'0 0.0
2017-Aug-03 03:29N 54°42' E 020°28'0 0.0
2017-Aug-03 02:48N 54°42' E 020°28'0 0.0
2017-Aug-03 01:31N 54°42' E 020°28'  
2017-Jul-29 13:10N 54°38' E 019°60'2 8.0
2017-Jul-29 12:58N 54°38' E 019°57'3 7.0
2017-Jul-29 12:30N 54°39' E 019°52'1 2.7
2017-Jul-29 12:00N 54°39' E 019°50'0 0.1
2017-Jul-29 11:30N 54°39' E 019°49'0 0.0
2017-Jul-29 10:57N 54°39' E 019°49'0 0.0
2017-Jul-29 10:30N 54°39' E 019°49'0 0.0
2017-Jul-29 10:00N 54°39' E 019°49'0 0.0
2017-Jul-29 09:30N 54°39' E 019°49'3 5.6
2017-Jul-29 09:00N 54°41' E 019°46'4 8.1
2017-Jul-29 08:30N 54°43' E 019°40'3 6.9
2017-Jul-29 08:00N 54°46' E 019°37'4 7.8
2017-Jul-29 07:30N 54°50' E 019°37'13 7.8
2017-Jul-29 05:52N 55°03' E 019°37'5 7.7
2017-Jul-29 05:17N 55°07' E 019°40'3 7.9
2017-Jul-29 04:51N 55°11' E 019°41'3 8.1
2017-Jul-29 04:27N 55°13' E 019°43'4 8.2
2017-Jul-29 03:57N 55°17' E 019°45'  

Dump ship's entire track history